Time;durP1;ratioP1;P1;durP2;ratioP2;P2;SDS_P1;SDS_P2;PMS_P1;PMS_P2;Temp;Humidity;BMP_temperature;BMP_pressure;BME280_temperature;BME280_humidity;BME280_pressure;Samples;Min_cycle;Max_cycle;Signal;HPM_P1;HPM_P2
2023/10/02 00:01:17;;;;;;;;;;;;;;;;;;6068710;23;19997;-93
2023/10/02 00:03:44;;;;;;;;;;;;;;;;;;6068690;23;19910;-94
2023/10/02 00:06:10;;;;;;;;;;;;;;;;;;6068823;23;20296;-93
2023/10/02 00:08:42;;;;;;;;;;;;;;;;;;6067584;23;19909;-95
2023/10/02 00:11:09;;;;;;;;;;;;;;;;;;6083862;23;19956;-92
2023/10/02 00:14:18;;;;;;;;;;;;;;;;;;6116476;23;19925;-89
2023/10/02 00:16:40;;;;;;;;;;;;;;;;;;6123326;23;19934;-90
2023/10/02 00:19:18;;;;;;;;;;;;;;;;;;6096957;23;19968;-92
2023/10/02 00:21:44;;;;;;;;;;;;;;;;;;6098221;23;19938;-89
2023/10/02 00:24:17;;;;;;;;;;;;;;;;;;6097020;23;20251;-90
2023/10/02 00:26:44;;;;;;;;;;;;;;;;;;6094871;23;19909;-90
2023/10/02 00:29:10;;;;;;;;;;;;;;;;;;6097880;23;19908;-89
2023/10/02 00:31:38;;;;;;;;;;;;;;;;;;6096326;23;19912;-91
2023/10/02 00:34:07;;;;;;;;;;;;;;;;;;6096044;23;19905;-89
2023/10/02 00:36:33;;;;;;;;;;;;;;;;;;6097828;23;19928;-89
2023/10/02 00:39:24;;;;;;;;;;;;;;;;;;6097662;23;19908;-89
2023/10/02 00:42:15;;;;;;;;;;;;;;;;;;6122187;23;19984;-89
2023/10/02 00:47:15;;;;;;;;;;;;;;;;;;6121759;23;20366;-88
2023/10/02 00:49:41;;;;;;;;;;;;;;;;;;6096067;23;19909;-90
2023/10/02 00:52:08;;;;;;;;;;;;;;;;;;6096652;23;19916;-89
2023/10/02 00:54:44;;;;;;;;;;;;;;;;;;6098671;23;22108;-89
2023/10/02 00:57:16;;;;;;;;;;;;;;;;;;6095796;23;19932;-88
2023/10/02 00:59:44;;;;;;;;;;;;;;;;;;6097188;23;19947;-89
2023/10/02 01:02:11;;;;;;;;;;;;;;;;;;6095203;23;19909;-90
2023/10/02 01:04:37;;;;;;;;;;;;;;;;;;6095995;23;20367;-90
2023/10/02 01:07:11;;;;;;;;;;;;;;;;;;6096039;23;19938;-92
2023/10/02 01:09:41;;;;;;;;;;;;;;;;;;6095630;23;20328;-90
2023/10/02 01:12:10;;;;;;;;;;;;;;;;;;6096329;23;19916;-88
2023/10/02 01:14:52;;;;;;;;;;;;;;;;;;6077995;23;20387;-88
2023/10/02 01:17:20;;;;;;;;;;;;;;;;;;6067231;23;20366;-90
2023/10/02 01:19:52;;;;;;;;;;;;;;;;;;6067919;23;20281;-90
2023/10/02 01:22:26;;;;;;;;;;;;;;;;;;6067257;23;20315;-87
2023/10/02 01:25:12;;;;;;;;;;;;;;;;;;6068190;23;19909;-90
2023/10/02 01:27:40;;;;;;;;;;;;;;;;;;6093682;23;19906;-88
2023/10/02 01:30:15;;;;;;;;;;;;;;;;;;6067799;23;19946;-88
2023/10/02 01:32:44;;;;;;;;;;;;;;;;;;6065439;23;19913;-88
2023/10/02 01:35:12;;;;;;;;;;;;;;;;;;6067022;23;19905;-91
2023/10/02 01:37:41;;;;;;;;;;;;;;;;;;6068322;23;19937;-92
2023/10/02 01:40:33;;;;;;;;;;;;;;;;;;6066992;23;19909;-88
2023/10/02 01:43:11;;;;;;;;;;;;;;;;;;6067265;23;19972;-88
2023/10/02 01:45:42;;;;;;;;;;;;;;;;;;6068595;23;19909;-88
2023/10/02 01:48:08;;;;;;;;;;;;;;;;;;6096064;23;19945;-92
2023/10/02 01:50:36;;;;;;;;;;;;;;;;;;6073585;23;19906;-94
2023/10/02 01:53:04;;;;;;;;;;;;;;;;;;6071410;23;19906;-93
2023/10/02 01:55:30;;;;;;;;;;;;;;;;;;6072395;23;19910;-92
2023/10/02 01:57:56;;;;;;;;;;;;;;;;;;6071847;23;19905;-90
2023/10/02 02:00:24;;;;;;;;;;;;;;;;;;6072299;23;19953;-93
2023/10/02 02:03:14;;;;;;;;;;;;;;;;;;6070210;23;19935;-90
2023/10/02 02:05:36;;;;;;;;;;;;;;;;;;6097157;23;19909;-93
2023/10/02 02:08:21;;;;;;;;;;;;;;;;;;6070533;23;19965;-94
2023/10/02 02:10:48;;;;;;;;;;;;;;;;;;6072546;23;20375;-91
2023/10/02 02:13:14;;;;;;;;;;;;;;;;;;6074654;23;19914;-90
2023/10/02 02:15:40;;;;;;;;;;;;;;;;;;6100906;23;19940;-89
2023/10/02 02:18:06;;;;;;;;;;;;;;;;;;6099555;23;19955;-92
2023/10/02 02:20:45;;;;;;;;;;;;;;;;;;6099781;23;19905;-91
2023/10/02 02:23:14;;;;;;;;;;;;;;;;;;6100975;23;19959;-91
2023/10/02 02:25:41;;;;;;;;;;;;;;;;;;6126919;23;19905;-91
2023/10/02 02:28:07;;;;;;;;;;;;;;;;;;6101296;23;19909;-91
2023/10/02 02:30:40;;;;;;;;;;;;;;;;;;6101874;23;19913;-92
2023/10/02 02:33:10;;;;;;;;;;;;;;;;;;6097894;23;19909;-93
2023/10/02 02:35:36;;;;;;;;;;;;;;;;;;6098382;23;19909;-90
2023/10/02 02:38:02;;;;;;;;;;;;;;;;;;6095256;23;19911;-91
2023/10/02 02:40:30;;;;;;;;;;;;;;;;;;6098508;23;20392;-91
2023/10/02 02:42:56;;;;;;;;;;;;;;;;;;6097680;23;19905;-91
2023/10/02 02:45:28;;;;;;;;;;;;;;;;;;6097972;23;20446;-91
2023/10/02 02:47:54;;;;;;;;;;;;;;;;;;6096704;23;19913;-90
2023/10/02 02:50:32;;;;;;;;;;;;;;;;;;6097985;23;19930;-91
2023/10/02 02:53:21;;;;;;;;;;;;;;;;;;6119118;23;19952;-92
2023/10/02 02:55:47;;;;;;;;;;;;;;;;;;6097639;23;19908;-91
2023/10/02 02:58:14;;;;;;;;;;;;;;;;;;6100437;23;19988;-90
2023/10/02 03:00:42;;;;;;;;;;;;;;;;;;6125893;23;19940;-91
2023/10/02 03:03:32;;;;;;;;;;;;;;;;;;6099871;23;20340;-90
2023/10/02 03:05:58;;;;;;;;;;;;;;;;;;6124985;23;19984;-91
2023/10/02 03:08:37;;;;;;;;;;;;;;;;;;6099712;23;19908;-91
2023/10/02 03:11:10;;;;;;;;;;;;;;;;;;6099708;23;19913;-90
2023/10/02 03:13:36;;;;;;;;;;;;;;;;;;6100970;23;19920;-91
2023/10/02 03:16:08;;;;;;;;;;;;;;;;;;6099687;23;19909;-92
2023/10/02 03:18:36;;;;;;;;;;;;;;;;;;6099930;23;19921;-91
2023/10/02 03:23:39;;;;;;;;;;;;;;;;;;6134778;23;20339;-91
2023/10/02 03:26:07;;;;;;;;;;;;;;;;;;6099619;23;20500;-91
2023/10/02 03:28:33;;;;;;;;;;;;;;;;;;6098733;23;19909;-89
2023/10/02 03:31:03;;;;;;;;;;;;;;;;;;6099182;23;19981;-90
2023/10/02 03:33:34;;;;;;;;;;;;;;;;;;6098331;23;20399;-89
2023/10/02 03:36:09;;;;;;;;;;;;;;;;;;6097947;23;20004;-89
2023/10/02 03:38:41;;;;;;;;;;;;;;;;;;6099551;23;20339;-89
2023/10/02 03:41:07;;;;;;;;;;;;;;;;;;6098566;23;19909;-90
2023/10/02 03:43:56;;;;;;;;;;;;;;;;;;6098814;23;19955;-90
2023/10/02 03:46:35;;;;;;;;;;;;;;;;;;6099681;23;19916;-90
2023/10/02 03:49:03;;;;;;;;;;;;;;;;;;6098254;23;20465;-88
2023/10/02 03:51:40;;;;;;;;;;;;;;;;;;6100098;23;19909;-89
2023/10/02 03:54:20;;;;;;;;;;;;;;;;;;6098913;23;19905;-91
2023/10/02 03:56:49;;;;;;;;;;;;;;;;;;6099008;23;20331;-91
2023/10/02 03:59:20;;;;;;;;;;;;;;;;;;6098590;23;19915;-91
2023/10/02 04:01:47;;;;;;;;;;;;;;;;;;6097721;23;19924;-91
2023/10/02 04:06:42;;;;;;;;;;;;;;;;;;6131038;23;19916;-91
2023/10/02 04:09:29;;;;;;;;;;;;;;;;;;6099266;23;19936;-91
2023/10/02 04:11:54;;;;;;;;;;;;;;;;;;6123683;23;20344;-90
2023/10/02 04:14:31;;;;;;;;;;;;;;;;;;6106322;23;19944;-90
2023/10/02 04:19:35;;;;;;;;;;;;;;;;;;6130606;23;19940;-91
2023/10/02 04:22:06;;;;;;;;;;;;;;;;;;6128686;23;20316;-92
2023/10/02 04:24:50;;;;;;;;;;;;;;;;;;6127495;23;20313;-92
2023/10/02 04:27:18;;;;;;;;;;;;;;;;;;6136558;23;19909;-91
2023/10/02 04:30:09;;;;;;;;;;;;;;;;;;6139710;23;19908;-91
2023/10/02 04:32:32;;;;;;;;;;;;;;;;;;6140362;23;20001;-92
2023/10/02 04:34:58;;;;;;;;;;;;;;;;;;6123850;23;20064;-92
2023/10/02 04:37:24;;;;;;;;;;;;;;;;;;6125961;23;19912;-89
2023/10/02 04:40:37;;;;;;;;;;;;;;;;;;6124728;23;19909;-88
2023/10/02 04:42:57;;;;;;;;;;;;;;;;;;6117719;23;19983;-91
2023/10/02 04:45:26;;;;;;;;;;;;;;;;;;6122169;23;19909;-88
2023/10/02 04:47:58;;;;;;;;;;;;;;;;;;6124215;23;20248;-89
2023/10/02 05:15:07;;;;;;;;;;;;;;;;;;6124558;23;19909;-94
2023/10/02 05:17:44;;;;;;;;;;;;;;;;;;6150015;23;20638;-93
2023/10/02 05:20:15;;;;;;;;;;;;;;;;;;6122818;23;20003;-95
2023/10/02 05:22:42;;;;;;;;;;;;;;;;;;6123841;23;20061;-94
2023/10/02 05:25:10;;;;;;;;;;;;;;;;;;6124773;23;19909;-94
2023/10/02 05:27:37;;;;;;;;;;;;;;;;;;6123976;23;19904;-92
2023/10/02 05:30:05;;;;;;;;;;;;;;;;;;6124887;23;20390;-94
2023/10/02 05:32:35;;;;;;;;;;;;;;;;;;6125106;23;19912;-93
2023/10/02 05:37:43;;;;;;;;;;;;;;;;;;6161541;23;19909;-94
2023/10/02 05:43:17;;;;;;;;;;;;;;;;;;6160240;23;19908;-93
2023/10/02 05:45:40;;;;;;;;;;;;;;;;;;6146510;23;20339;-94
2023/10/02 05:48:07;;;;;;;;;;;;;;;;;;6126704;23;19904;-94
2023/10/02 05:50:33;;;;;;;;;;;;;;;;;;6124785;23;19912;-94
2023/10/02 05:52:59;;;;;;;;;;;;;;;;;;6125755;23;19988;-93
2023/10/02 05:55:54;;;;;;;;;;;;;;;;;;6124278;23;19992;-93
2023/10/02 05:58:23;;;;;;;;;;;;;;;;;;6151491;23;19920;-94
2023/10/02 06:00:51;;;;;;;;;;;;;;;;;;6125584;23;19905;-93
2023/10/02 06:03:17;;;;;;;;;;;;;;;;;;6124828;23;20267;-92
2023/10/02 06:06:10;;;;;;;;;;;;;;;;;;6125491;23;19927;-94
2023/10/02 06:08:33;;;;;;;;;;;;;;;;;;6152230;23;19916;-90
2023/10/02 06:11:08;;;;;;;;;;;;;;;;;;6125164;23;19916;-91
2023/10/02 06:13:37;;;;;;;;;;;;;;;;;;6123226;23;19908;-90
2023/10/02 06:16:03;;;;;;;;;;;;;;;;;;6124923;23;20271;-90
2023/10/02 06:18:29;;;;;;;;;;;;;;;;;;6123643;23;19908;-90
2023/10/02 06:20:58;;;;;;;;;;;;;;;;;;6125521;23;20028;-90
2023/10/02 06:23:25;;;;;;;;;;;;;;;;;;6124254;23;19913;-90
2023/10/02 06:25:52;;;;;;;;;;;;;;;;;;6124472;23;19908;-90
2023/10/02 06:28:28;;;;;;;;;;;;;;;;;;6124621;23;19931;-90
2023/10/02 06:30:57;;;;;;;;;;;;;;;;;;6123466;23;19995;-90
2023/10/02 06:33:23;;;;;;;;;;;;;;;;;;6124310;23;19983;-90
2023/10/02 06:35:57;;;;;;;;;;;;;;;;;;6124505;23;19947;-90
2023/10/02 06:38:23;;;;;;;;;;;;;;;;;;6151760;23;20306;-90
2023/10/02 06:40:56;;;;;;;;;;;;;;;;;;6124340;23;19955;-91
2023/10/02 06:43:32;;;;;;;;;;;;;;;;;;6124978;23;19909;-90
2023/10/02 06:46:06;;;;;;;;;;;;;;;;;;6123839;23;20290;-90
2023/10/02 06:48:34;;;;;;;;;;;;;;;;;;6125155;23;20386;-90
2023/10/02 06:51:00;;;;;;;;;;;;;;;;;;6124670;23;20338;-90
2023/10/02 06:53:26;;;;;;;;;;;;;;;;;;6124819;23;19908;-91
2023/10/02 06:55:58;;;;;;;;;;;;;;;;;;6124327;23;19932;-91
2023/10/02 06:58:25;;;;;;;;;;;;;;;;;;6125620;23;20207;-91
2023/10/02 07:01:01;;;;;;;;;;;;;;;;;;6123853;23;19924;-91
2023/10/02 07:03:27;;;;;;;;;;;;;;;;;;6124365;23;19905;-91
2023/10/02 07:05:53;;;;;;;;;;;;;;;;;;6125033;23;19979;-91
2023/10/02 07:08:22;;;;;;;;;;;;;;;;;;6123768;23;19931;-91
2023/10/02 07:10:48;;;;;;;;;;;;;;;;;;6118046;23;20012;-91
2023/10/02 07:13:21;;;;;;;;;;;;;;;;;;6117609;23;19987;-91
2023/10/02 07:15:59;;;;;;;;;;;;;;;;;;6119669;23;20291;-91
2023/10/02 07:18:35;;;;;;;;;;;;;;;;;;6117385;23;19909;-91
2023/10/02 07:21:01;;;;;;;;;;;;;;;;;;6119759;23;19905;-90
2023/10/02 07:23:30;;;;;;;;;;;;;;;;;;6119655;23;19954;-91
2023/10/02 07:25:56;;;;;;;;;;;;;;;;;;6119091;23;19979;-90
2023/10/02 07:28:22;;;;;;;;;;;;;;;;;;6119000;23;19909;-90
2023/10/02 07:30:50;;;;;;;;;;;;;;;;;;6118798;23;19932;-90
2023/10/02 07:33:18;;;;;;;;;;;;;;;;;;6120069;23;19975;-90
2023/10/02 07:35:52;;;;;;;;;;;;;;;;;;6118953;23;19909;-91
2023/10/02 07:38:18;;;;;;;;;;;;;;;;;;6119840;23;19905;-90
2023/10/02 07:40:48;;;;;;;;;;;;;;;;;;6119140;23;19941;-91
2023/10/02 07:43:18;;;;;;;;;;;;;;;;;;6121507;23;19908;-90
2023/10/02 07:45:44;;;;;;;;;;;;;;;;;;6121878;23;19944;-90
2023/10/02 07:48:16;;;;;;;;;;;;;;;;;;6122121;23;19913;-91
2023/10/02 07:50:43;;;;;;;;;;;;;;;;;;6120515;23;19931;-91
2023/10/02 07:53:09;;;;;;;;;;;;;;;;;;6121726;23;20363;-90
2023/10/02 07:55:37;;;;;;;;;;;;;;;;;;6121802;23;19916;-90
2023/10/02 07:58:04;;;;;;;;;;;;;;;;;;6121799;23;19946;-91
2023/10/02 08:00:33;;;;;;;;;;;;;;;;;;6121753;23;19909;-91
2023/10/02 08:03:02;;;;;;;;;;;;;;;;;;6122952;23;20351;-91
2023/10/02 08:05:28;;;;;;;;;;;;;;;;;;6120181;23;20272;-92
2023/10/02 08:08:18;;;;;;;;;;;;;;;;;;6121984;23;19909;-91
2023/10/02 08:10:56;;;;;;;;;;;;;;;;;;6151595;23;20017;-91
2023/10/02 08:13:32;;;;;;;;;;;;;;;;;;6125880;23;20324;-91
2023/10/02 08:15:58;;;;;;;;;;;;;;;;;;6127623;23;19904;-91
2023/10/02 08:18:26;;;;;;;;;;;;;;;;;;6124628;23;20333;-91
2023/10/02 08:20:55;;;;;;;;;;;;;;;;;;6125110;23;19979;-91
2023/10/02 08:23:24;;;;;;;;;;;;;;;;;;6126005;23;19904;-92
2023/10/02 08:26:00;;;;;;;;;;;;;;;;;;6126405;23;19915;-91
2023/10/02 08:28:26;;;;;;;;;;;;;;;;;;6127111;23;19909;-95
2023/10/02 08:30:59;;;;;;;;;;;;;;;;;;6129518;23;19936;-95
2023/10/02 08:33:26;;;;;;;;;;;;;;;;;;6129505;23;19928;-94
2023/10/02 08:35:52;;;;;;;;;;;;;;;;;;6129016;23;19904;-94
2023/10/02 08:38:25;;;;;;;;;;;;;;;;;;6132030;23;20379;-93
2023/10/02 08:40:57;;;;;;;;;;;;;;;;;;6131794;23;19939;-93
2023/10/02 08:43:23;;;;;;;;;;;;;;;;;;6135264;23;20315;-95
2023/10/02 08:45:50;;;;;;;;;;;;;;;;;;6134616;23;19904;-95
2023/10/02 08:48:19;;;;;;;;;;;;;;;;;;6136561;23;19908;-96
2023/10/02 08:50:47;;;;;;;;;;;;;;;;;;6134051;23;19908;-94
2023/10/02 08:53:19;;;;;;;;;;;;;;;;;;6134401;23;19909;-96
2023/10/02 08:58:19;;;;;;;;;;;;;;;;;;6164888;23;19912;-92
2023/10/02 09:00:44;;;;;;;;;;;;;;;;;;6125478;23;19919;-92
2023/10/02 09:03:12;;;;;;;;;;;;;;;;;;6125077;23;19923;-92
2023/10/02 09:05:37;;;;;;;;;;;;;;;;;;6124505;23;19904;-92
2023/10/02 09:08:06;;;;;;;;;;;;;;;;;;6125592;23;19911;-92
2023/10/02 09:10:41;;;;;;;;;;;;;;;;;;6122972;23;19924;-92
2023/10/02 09:13:07;;;;;;;;;;;;;;;;;;6119622;23;19913;-91
2023/10/02 09:15:35;;;;;;;;;;;;;;;;;;6120786;23;19963;-92
2023/10/02 09:18:19;;;;;;;;;;;;;;;;;;6119987;23;20315;-92
2023/10/02 09:20:47;;;;;;;;;;;;;;;;;;6124071;23;20333;-92
2023/10/02 09:23:13;;;;;;;;;;;;;;;;;;6121149;23;19970;-92
2023/10/02 09:25:40;;;;;;;;;;;;;;;;;;6120926;23;19956;-91
2023/10/02 09:28:13;;;;;;;;;;;;;;;;;;6121671;23;19909;-92
2023/10/02 09:30:41;;;;;;;;;;;;;;;;;;6121172;23;19911;-92
2023/10/02 09:33:14;;;;;;;;;;;;;;;;;;6121209;23;20374;-92
2023/10/02 09:35:44;;;;;;;;;;;;;;;;;;6120694;23;20526;-92
2023/10/02 09:38:10;;;;;;;;;;;;;;;;;;6122295;23;20130;-92
2023/10/02 09:43:21;;;;;;;;;;;;;;;;;;6122961;23;19931;-91
2023/10/02 09:45:47;;;;;;;;;;;;;;;;;;6119894;23;20308;-92
2023/10/02 09:48:46;;;;;;;;;;;;;;;;;;6121169;23;19916;-91
2023/10/02 09:51:06;;;;;;;;;;;;;;;;;;6122295;23;19988;-92
2023/10/02 09:53:32;;;;;;;;;;;;;;;;;;6121545;23;20243;-92
2023/10/02 09:55:58;;;;;;;;;;;;;;;;;;6120213;23;19909;-91
2023/10/02 09:58:29;;;;;;;;;;;;;;;;;;6121125;23;19908;-92
2023/10/02 10:00:55;;;;;;;;;;;;;;;;;;6120135;23;19905;-92
2023/10/02 10:03:31;;;;;;;;;;;;;;;;;;6121235;23;19909;-92
2023/10/02 10:06:05;;;;;;;;;;;;;;;;;;6121093;23;20396;-92
2023/10/02 10:08:33;;;;;;;;;;;;;;;;;;6122553;23;20282;-95
2023/10/02 10:13:50;;;;;;;;;;;;;;;;;;6064086;23;20040;-93
2023/10/02 10:16:19;;;;;;;;;;;;;;;;;;6116727;23;19909;-96
2023/10/02 10:18:46;;;;;;;;;;;;;;;;;;6123935;23;20271;-95
2023/10/02 10:21:13;;;;;;;;;;;;;;;;;;6125940;23;19909;-93
2023/10/02 10:23:39;;;;;;;;;;;;;;;;;;6129371;23;19909;-94
2023/10/02 10:26:18;;;;;;;;;;;;;;;;;;6130755;23;19969;-96
2023/10/02 10:28:53;;;;;;;;;;;;;;;;;;6129422;23;19909;-95
2023/10/02 10:31:20;;;;;;;;;;;;;;;;;;6126460;23;19956;-96
2023/10/02 10:33:46;;;;;;;;;;;;;;;;;;6124678;23;19915;-96
2023/10/02 10:36:20;;;;;;;;;;;;;;;;;;6125607;23;19909;-95
2023/10/02 10:38:49;;;;;;;;;;;;;;;;;;6128414;23;19943;-93
2023/10/02 10:41:15;;;;;;;;;;;;;;;;;;6131350;23;19912;-93
2023/10/02 10:43:55;;;;;;;;;;;;;;;;;;6127644;23;19938;-96
2023/10/02 10:46:24;;;;;;;;;;;;;;;;;;6131220;23;19907;-93
2023/10/02 10:51:36;;;;;;;;;;;;;;;;;;6121660;23;19919;-91
2023/10/02 10:54:25;;;;;;;;;;;;;;;;;;6119994;23;20291;-91
2023/10/02 10:56:51;;;;;;;;;;;;;;;;;;6120363;23;20005;-91
2023/10/02 10:59:32;;;;;;;;;;;;;;;;;;6120030;23;20011;-92
2023/10/02 11:02:12;;;;;;;;;;;;;;;;;;6119720;23;19909;-91
2023/10/02 11:04:41;;;;;;;;;;;;;;;;;;6119331;23;19924;-91
2023/10/02 11:07:19;;;;;;;;;;;;;;;;;;6119829;23;19905;-91
2023/10/02 11:09:51;;;;;;;;;;;;;;;;;;6119766;23;19923;-91
2023/10/02 11:12:17;;;;;;;;;;;;;;;;;;6121057;23;20001;-92
2023/10/02 11:14:51;;;;;;;;;;;;;;;;;;6118789;23;20308;-91
2023/10/02 11:17:17;;;;;;;;;;;;;;;;;;6121382;23;20379;-94
2023/10/02 11:19:45;;;;;;;;;;;;;;;;;;6130237;23;19928;-96
2023/10/02 11:22:15;;;;;;;;;;;;;;;;;;6131454;23;19963;-93
2023/10/02 11:24:40;;;;;;;;;;;;;;;;;;6130730;23;19928;-93
2023/10/02 11:27:16;;;;;;;;;;;;;;;;;;6131660;23;19905;-93
2023/10/02 11:29:42;;;;;;;;;;;;;;;;;;6130379;23;19913;-95
2023/10/02 11:32:22;;;;;;;;;;;;;;;;;;6130131;23;20348;-95
2023/10/02 11:34:48;;;;;;;;;;;;;;;;;;6129893;23;19905;-95
2023/10/02 11:37:14;;;;;;;;;;;;;;;;;;6130156;23;19971;-95
2023/10/02 11:39:40;;;;;;;;;;;;;;;;;;6129583;23;19905;-95
2023/10/02 11:42:06;;;;;;;;;;;;;;;;;;6130803;23;19916;-94
2023/10/02 11:44:32;;;;;;;;;;;;;;;;;;6130224;23;19932;-94
2023/10/02 11:46:59;;;;;;;;;;;;;;;;;;6128045;23;19905;-94
2023/10/02 11:49:27;;;;;;;;;;;;;;;;;;6128782;23;19912;-95
2023/10/02 11:51:53;;;;;;;;;;;;;;;;;;6129927;23;19919;-95
2023/10/02 11:54:19;;;;;;;;;;;;;;;;;;6129226;23;19932;-95
2023/10/02 11:56:47;;;;;;;;;;;;;;;;;;6127914;23;19924;-95
2023/10/02 11:59:16;;;;;;;;;;;;;;;;;;6121970;23;19980;-91
2023/10/02 12:01:43;;;;;;;;;;;;;;;;;;6120649;23;19905;-90
2023/10/02 12:04:09;;;;;;;;;;;;;;;;;;6120645;23;19909;-91
2023/10/02 12:06:38;;;;;;;;;;;;;;;;;;6120784;23;20279;-91
2023/10/02 12:09:04;;;;;;;;;;;;;;;;;;6121171;23;19909;-92
2023/10/02 12:11:30;;;;;;;;;;;;;;;;;;6123357;23;20393;-91
2023/10/02 12:13:56;;;;;;;;;;;;;;;;;;6120986;23;19905;-91
2023/10/02 12:16:22;;;;;;;;;;;;;;;;;;6121485;23;19913;-91
2023/10/02 12:18:49;;;;;;;;;;;;;;;;;;6122194;23;19909;-92
2023/10/02 12:21:16;;;;;;;;;;;;;;;;;;6120093;23;19929;-91
2023/10/02 12:23:43;;;;;;;;;;;;;;;;;;6121191;23;20406;-90
2023/10/02 12:26:09;;;;;;;;;;;;;;;;;;6121153;23;19940;-91
2023/10/02 12:28:35;;;;;;;;;;;;;;;;;;6120988;23;19909;-92
2023/10/02 12:31:01;;;;;;;;;;;;;;;;;;6120645;23;19921;-92
2023/10/02 12:33:29;;;;;;;;;;;;;;;;;;6120698;23;20291;-92
2023/10/02 12:35:57;;;;;;;;;;;;;;;;;;6120838;23;20546;-92
2023/10/02 12:38:24;;;;;;;;;;;;;;;;;;6121527;23;19935;-92
2023/10/02 12:40:51;;;;;;;;;;;;;;;;;;6120879;23;20506;-91
2023/10/02 12:43:23;;;;;;;;;;;;;;;;;;6121781;23;19905;-92
2023/10/02 12:45:49;;;;;;;;;;;;;;;;;;6120429;23;19905;-91
2023/10/02 12:48:22;;;;;;;;;;;;;;;;;;6121081;23;19913;-91
2023/10/02 12:50:48;;;;;;;;;;;;;;;;;;6120484;23;19920;-92
2023/10/02 12:53:17;;;;;;;;;;;;;;;;;;6122003;23;20399;-91
2023/10/02 12:55:45;;;;;;;;;;;;;;;;;;6120797;23;20359;-92
2023/10/02 12:58:11;;;;;;;;;;;;;;;;;;6121043;23;19909;-92
2023/10/02 13:00:37;;;;;;;;;;;;;;;;;;6120838;23;20159;-92
2023/10/02 13:03:04;;;;;;;;;;;;;;;;;;6123221;23;20230;-92
2023/10/02 13:05:31;;;;;;;;;;;;;;;;;;6119515;23;19988;-92
2023/10/02 13:07:58;;;;;;;;;;;;;;;;;;6120035;23;19905;-91
2023/10/02 13:10:24;;;;;;;;;;;;;;;;;;6125685;23;19952;-91
2023/10/02 13:12:50;;;;;;;;;;;;;;;;;;6124481;23;19952;-90
2023/10/02 13:15:16;;;;;;;;;;;;;;;;;;6124921;23;19909;-90
2023/10/02 13:17:49;;;;;;;;;;;;;;;;;;6124815;23;19932;-89
2023/10/02 13:20:15;;;;;;;;;;;;;;;;;;6124132;23;20422;-90
2023/10/02 13:22:41;;;;;;;;;;;;;;;;;;6124444;23;19928;-90
2023/10/02 13:25:11;;;;;;;;;;;;;;;;;;6124453;23;19912;-90
2023/10/02 13:27:37;;;;;;;;;;;;;;;;;;6124106;23;19971;-89
2023/10/02 13:30:05;;;;;;;;;;;;;;;;;;6124832;23;19912;-90
2023/10/02 13:32:31;;;;;;;;;;;;;;;;;;6125250;23;20266;-90
2023/10/02 13:34:57;;;;;;;;;;;;;;;;;;6124543;23;20398;-90
2023/10/02 13:37:23;;;;;;;;;;;;;;;;;;6124538;23;19904;-90
2023/10/02 13:39:49;;;;;;;;;;;;;;;;;;6124508;23;19912;-90
2023/10/02 13:42:16;;;;;;;;;;;;;;;;;;6124798;23;20234;-90
2023/10/02 13:44:43;;;;;;;;;;;;;;;;;;6125544;23;20597;-90
2023/10/02 13:47:09;;;;;;;;;;;;;;;;;;6125113;23;20251;-90
2023/10/02 13:49:35;;;;;;;;;;;;;;;;;;6125496;23;19916;-90
2023/10/02 13:52:01;;;;;;;;;;;;;;;;;;6124512;23;19919;-90
2023/10/02 13:54:27;;;;;;;;;;;;;;;;;;6125164;23;19958;-90
2023/10/02 13:56:53;;;;;;;;;;;;;;;;;;6125547;23;19951;-90
2023/10/02 13:59:21;;;;;;;;;;;;;;;;;;6125113;23;19936;-90
2023/10/02 14:01:48;;;;;;;;;;;;;;;;;;6125273;23;20343;-91
2023/10/02 14:04:14;;;;;;;;;;;;;;;;;;6125125;23;19913;-89
2023/10/02 14:06:40;;;;;;;;;;;;;;;;;;6124916;23;19908;-90
2023/10/02 14:09:10;;;;;;;;;;;;;;;;;;6124177;23;19982;-90
2023/10/02 14:11:39;;;;;;;;;;;;;;;;;;6121784;23;20469;-90
2023/10/02 14:14:12;;;;;;;;;;;;;;;;;;6117841;23;19905;-90
2023/10/02 14:16:40;;;;;;;;;;;;;;;;;;6119942;23;19909;-90
2023/10/02 14:19:06;;;;;;;;;;;;;;;;;;6119874;23;19912;-90
2023/10/02 14:21:32;;;;;;;;;;;;;;;;;;6120155;23;19904;-90
2023/10/02 14:23:58;;;;;;;;;;;;;;;;;;6121036;23;19905;-90
2023/10/02 14:26:24;;;;;;;;;;;;;;;;;;6121046;23;19959;-90
2023/10/02 14:28:51;;;;;;;;;;;;;;;;;;6120352;23;20358;-91
2023/10/02 14:31:17;;;;;;;;;;;;;;;;;;6119623;23;19957;-91
2023/10/02 14:33:43;;;;;;;;;;;;;;;;;;6120067;23;19936;-90
2023/10/02 14:36:12;;;;;;;;;;;;;;;;;;6119900;23;19905;-91
2023/10/02 14:38:39;;;;;;;;;;;;;;;;;;6120885;23;19908;-91
2023/10/02 14:41:07;;;;;;;;;;;;;;;;;;6119586;23;20348;-91
2023/10/02 14:43:34;;;;;;;;;;;;;;;;;;6119740;23;19905;-90
2023/10/02 14:46:04;;;;;;;;;;;;;;;;;;6118739;23;20160;-90
2023/10/02 14:48:32;;;;;;;;;;;;;;;;;;6118561;23;19963;-90
2023/10/02 14:50:58;;;;;;;;;;;;;;;;;;6119251;23;19987;-90
2023/10/02 14:53:25;;;;;;;;;;;;;;;;;;6121798;23;19964;-90
2023/10/02 14:55:52;;;;;;;;;;;;;;;;;;6120973;23;20194;-89
2023/10/02 14:58:20;;;;;;;;;;;;;;;;;;6122583;23;19940;-90
2023/10/02 15:00:47;;;;;;;;;;;;;;;;;;6122033;23;19912;-89
2023/10/02 15:03:14;;;;;;;;;;;;;;;;;;6123584;23;19956;-90
2023/10/02 15:05:40;;;;;;;;;;;;;;;;;;6121641;23;19936;-90
2023/10/02 15:08:12;;;;;;;;;;;;;;;;;;6123666;23;19963;-90
2023/10/02 15:10:38;;;;;;;;;;;;;;;;;;6126941;23;19929;-89
2023/10/02 15:13:05;;;;;;;;;;;;;;;;;;6123803;23;19939;-89
2023/10/02 15:15:31;;;;;;;;;;;;;;;;;;6125851;23;19949;-89
2023/10/02 15:18:10;;;;;;;;;;;;;;;;;;6126236;23;20394;-90
2023/10/02 15:20:37;;;;;;;;;;;;;;;;;;6125899;23;20288;-89
2023/10/02 15:23:03;;;;;;;;;;;;;;;;;;6126019;23;20436;-90
2023/10/02 15:25:30;;;;;;;;;;;;;;;;;;6125095;23;19905;-90
2023/10/02 15:27:56;;;;;;;;;;;;;;;;;;6125382;23;20381;-91
2023/10/02 15:30:23;;;;;;;;;;;;;;;;;;6125351;23;19939;-89
2023/10/02 15:32:49;;;;;;;;;;;;;;;;;;6152573;23;19916;-89
2023/10/02 15:35:16;;;;;;;;;;;;;;;;;;6126148;23;19940;-89
2023/10/02 15:37:43;;;;;;;;;;;;;;;;;;6126264;23;20347;-90
2023/10/02 15:40:12;;;;;;;;;;;;;;;;;;6126140;23;19920;-89
2023/10/02 15:42:38;;;;;;;;;;;;;;;;;;6125916;23;20363;-90
2023/10/02 15:45:16;;;;;;;;;;;;;;;;;;6126113;23;19914;-89
2023/10/02 15:47:44;;;;;;;;;;;;;;;;;;6126254;23;19975;-90
2023/10/02 15:50:10;;;;;;;;;;;;;;;;;;6125506;23;20396;-90
2023/10/02 15:52:36;;;;;;;;;;;;;;;;;;6125962;23;19928;-90
2023/10/02 15:55:03;;;;;;;;;;;;;;;;;;6126031;23;19909;-91
2023/10/02 15:57:28;;;;;;;;;;;;;;;;;;6126949;23;20347;-91
2023/10/02 15:59:56;;;;;;;;;;;;;;;;;;6151561;23;19912;-91
2023/10/02 16:02:23;;;;;;;;;;;;;;;;;;6126526;23;20221;-90
2023/10/02 16:04:49;;;;;;;;;;;;;;;;;;6126249;23;20346;-90
2023/10/02 16:07:15;;;;;;;;;;;;;;;;;;6126332;23;19988;-89
2023/10/02 16:09:41;;;;;;;;;;;;;;;;;;6126233;23;19912;-90
2023/10/02 16:12:06;;;;;;;;;;;;;;;;;;6124441;23;19917;-89
2023/10/02 16:14:32;;;;;;;;;;;;;;;;;;6120450;23;20379;-90
2023/10/02 16:16:58;;;;;;;;;;;;;;;;;;6121863;23;19905;-92
2023/10/02 16:19:24;;;;;;;;;;;;;;;;;;6120455;23;19905;-90
2023/10/02 16:21:50;;;;;;;;;;;;;;;;;;6119876;23;19909;-91
2023/10/02 16:24:16;;;;;;;;;;;;;;;;;;6120421;23;19932;-91
2023/10/02 16:26:42;;;;;;;;;;;;;;;;;;6119866;23;19909;-90
2023/10/02 16:29:12;;;;;;;;;;;;;;;;;;6119093;23;19956;-92
2023/10/02 16:31:42;;;;;;;;;;;;;;;;;;6117476;23;19909;-89
2023/10/02 16:34:11;;;;;;;;;;;;;;;;;;6119295;23;19909;-88
2023/10/02 16:36:37;;;;;;;;;;;;;;;;;;6120255;23;20320;-87
2023/10/02 16:39:03;;;;;;;;;;;;;;;;;;6119959;23;19909;-89
2023/10/02 16:41:30;;;;;;;;;;;;;;;;;;6119381;23;19940;-89
2023/10/02 16:43:56;;;;;;;;;;;;;;;;;;6119674;23;19928;-88
2023/10/02 16:46:24;;;;;;;;;;;;;;;;;;6122379;23;19905;-90
2023/10/02 16:48:50;;;;;;;;;;;;;;;;;;6120330;23;19905;-89
2023/10/02 16:51:17;;;;;;;;;;;;;;;;;;6119555;23;19928;-89
2023/10/02 16:53:43;;;;;;;;;;;;;;;;;;6120961;23;20382;-88
2023/10/02 16:56:09;;;;;;;;;;;;;;;;;;6120871;23;19909;-89
2023/10/02 16:58:40;;;;;;;;;;;;;;;;;;6121577;23;19927;-89
2023/10/02 17:01:07;;;;;;;;;;;;;;;;;;6120082;23;19936;-90
2023/10/02 17:03:33;;;;;;;;;;;;;;;;;;6120299;23;20260;-89
2023/10/02 17:06:05;;;;;;;;;;;;;;;;;;6118475;23;19909;-88
2023/10/02 17:08:30;;;;;;;;;;;;;;;;;;6119261;23;20307;-88
2023/10/02 17:10:56;;;;;;;;;;;;;;;;;;6121888;23;19909;-88
2023/10/02 17:13:23;;;;;;;;;;;;;;;;;;6118083;23;19921;-90
2023/10/02 17:15:49;;;;;;;;;;;;;;;;;;6121158;23;19940;-89
2023/10/02 17:18:17;;;;;;;;;;;;;;;;;;6118769;23;19909;-90
2023/10/02 17:20:43;;;;;;;;;;;;;;;;;;6119234;23;19936;-88
2023/10/02 17:23:09;;;;;;;;;;;;;;;;;;6120151;23;19993;-89
2023/10/02 17:25:37;;;;;;;;;;;;;;;;;;6121029;23;19991;-89
2023/10/02 17:28:03;;;;;;;;;;;;;;;;;;6120066;23;19979;-89
2023/10/02 17:30:31;;;;;;;;;;;;;;;;;;6121038;23;19938;-89
2023/10/02 17:32:57;;;;;;;;;;;;;;;;;;6119300;23;20030;-90
2023/10/02 17:35:23;;;;;;;;;;;;;;;;;;6118637;23;19929;-90
2023/10/02 17:37:49;;;;;;;;;;;;;;;;;;6119167;23;19932;-90
2023/10/02 17:40:20;;;;;;;;;;;;;;;;;;6119679;23;20329;-90
2023/10/02 17:42:46;;;;;;;;;;;;;;;;;;6120416;23;19979;-89
2023/10/02 17:45:12;;;;;;;;;;;;;;;;;;6120330;23;19994;-90
2023/10/02 17:47:38;;;;;;;;;;;;;;;;;;6118645;23;19905;-89
2023/10/02 17:50:04;;;;;;;;;;;;;;;;;;6118360;23;19909;-89
2023/10/02 17:52:30;;;;;;;;;;;;;;;;;;6118931;23;19919;-89